sensor_id;sensor_type;location;lat;lon;timestamp;temperature;humidity
5834;DHT22;2943;48.012;10.968;2023-04-24T00:01:16;9.40;99.90
5834;DHT22;2943;48.012;10.968;2023-04-24T00:03:44;9.30;99.90
5834;DHT22;2943;48.012;10.968;2023-04-24T00:06:11;9.40;99.90
5834;DHT22;2943;48.012;10.968;2023-04-24T00:08:38;9.40;99.90
5834;DHT22;2943;48.012;10.968;2023-04-24T00:11:05;9.40;99.90
5834;DHT22;2943;48.012;10.968;2023-04-24T00:13:32;9.40;99.90
5834;DHT22;2943;48.012;10.968;2023-04-24T00:15:59;9.30;99.90
5834;DHT22;2943;48.012;10.968;2023-04-24T00:18:28;9.30;99.90
5834;DHT22;2943;48.012;10.968;2023-04-24T00:20:55;9.30;99.90
5834;DHT22;2943;48.012;10.968;2023-04-24T00:23:22;9.30;99.90
5834;DHT22;2943;48.012;10.968;2023-04-24T00:25:49;9.30;99.90
5834;DHT22;2943;48.012;10.968;2023-04-24T00:28:16;9.20;99.90
5834;DHT22;2943;48.012;10.968;2023-04-24T00:30:43;9.30;99.90
5834;DHT22;2943;48.012;10.968;2023-04-24T00:33:10;9.20;99.90
5834;DHT22;2943;48.012;10.968;2023-04-24T00:35:38;9.20;99.90
5834;DHT22;2943;48.012;10.968;2023-04-24T00:38:05;9.20;99.90
5834;DHT22;2943;48.012;10.968;2023-04-24T00:40:32;9.20;99.90
5834;DHT22;2943;48.012;10.968;2023-04-24T00:43:00;9.20;99.90
5834;DHT22;2943;48.012;10.968;2023-04-24T00:45:27;9.20;99.90
5834;DHT22;2943;48.012;10.968;2023-04-24T00:47:53;9.10;99.90
5834;DHT22;2943;48.012;10.968;2023-04-24T00:50:21;9.10;99.90
5834;DHT22;2943;48.012;10.968;2023-04-24T00:52:49;9.10;99.90
5834;DHT22;2943;48.012;10.968;2023-04-24T00:55:16;9.10;99.90
5834;DHT22;2943;48.012;10.968;2023-04-24T00:57:44;9.00;99.90
5834;DHT22;2943;48.012;10.968;2023-04-24T01:00:12;9.00;99.90
5834;DHT22;2943;48.012;10.968;2023-04-24T01:02:41;9.00;99.90
5834;DHT22;2943;48.012;10.968;2023-04-24T01:05:11;8.90;99.90
5834;DHT22;2943;48.012;10.968;2023-04-24T01:07:39;8.90;99.90
5834;DHT22;2943;48.012;10.968;2023-04-24T01:10:11;8.90;99.90
5834;DHT22;2943;48.012;10.968;2023-04-24T01:12:39;8.90;99.90
5834;DHT22;2943;48.012;10.968;2023-04-24T01:15:07;9.00;99.90
5834;DHT22;2943;48.012;10.968;2023-04-24T01:17:34;9.00;99.90
5834;DHT22;2943;48.012;10.968;2023-04-24T01:20:02;9.00;99.90
5834;DHT22;2943;48.012;10.968;2023-04-24T01:22:33;9.00;99.90
5834;DHT22;2943;48.012;10.968;2023-04-24T01:25:00;9.00;99.90
5834;DHT22;2943;48.012;10.968;2023-04-24T01:27:27;9.00;99.90
5834;DHT22;2943;48.012;10.968;2023-04-24T01:29:55;9.00;99.90
5834;DHT22;2943;48.012;10.968;2023-04-24T01:32:22;9.00;99.90
5834;DHT22;2943;48.012;10.968;2023-04-24T01:34:49;9.10;99.90
5834;DHT22;2943;48.012;10.968;2023-04-24T01:37:17;9.10;99.90
5834;DHT22;2943;48.012;10.968;2023-04-24T01:39:45;9.00;99.90
5834;DHT22;2943;48.012;10.968;2023-04-24T01:42:13;9.00;99.90
5834;DHT22;2943;48.012;10.968;2023-04-24T01:44:41;9.00;99.90
5834;DHT22;2943;48.012;10.968;2023-04-24T01:47:08;9.00;99.90
5834;DHT22;2943;48.012;10.968;2023-04-24T01:49:37;9.00;99.90
5834;DHT22;2943;48.012;10.968;2023-04-24T01:52:04;9.00;99.90
5834;DHT22;2943;48.012;10.968;2023-04-24T01:54:31;9.00;99.90
5834;DHT22;2943;48.012;10.968;2023-04-24T01:57:00;9.00;99.90
5834;DHT22;2943;48.012;10.968;2023-04-24T01:59:28;8.90;99.90
5834;DHT22;2943;48.012;10.968;2023-04-24T02:01:55;8.90;99.90
5834;DHT22;2943;48.012;10.968;2023-04-24T02:04:22;8.90;99.90
5834;DHT22;2943;48.012;10.968;2023-04-24T02:06:48;8.90;99.90
5834;DHT22;2943;48.012;10.968;2023-04-24T02:09:16;8.90;99.90
5834;DHT22;2943;48.012;10.968;2023-04-24T02:11:43;8.90;99.90
5834;DHT22;2943;48.012;10.968;2023-04-24T02:14:11;8.90;99.90
5834;DHT22;2943;48.012;10.968;2023-04-24T02:16:38;8.80;99.90
5834;DHT22;2943;48.012;10.968;2023-04-24T02:19:05;8.80;99.90
5834;DHT22;2943;48.012;10.968;2023-04-24T02:21:32;8.90;99.90
5834;DHT22;2943;48.012;10.968;2023-04-24T02:23:59;8.90;99.90
5834;DHT22;2943;48.012;10.968;2023-04-24T02:26:26;8.90;99.90
5834;DHT22;2943;48.012;10.968;2023-04-24T02:28:53;8.90;99.90
5834;DHT22;2943;48.012;10.968;2023-04-24T02:31:21;8.90;99.90
5834;DHT22;2943;48.012;10.968;2023-04-24T02:33:48;8.90;99.90
5834;DHT22;2943;48.012;10.968;2023-04-24T02:36:15;8.90;99.90
5834;DHT22;2943;48.012;10.968;2023-04-24T02:38:42;8.90;99.90
5834;DHT22;2943;48.012;10.968;2023-04-24T02:41:09;8.90;99.90
5834;DHT22;2943;48.012;10.968;2023-04-24T02:43:36;8.90;99.90
5834;DHT22;2943;48.012;10.968;2023-04-24T02:46:03;8.90;99.90
5834;DHT22;2943;48.012;10.968;2023-04-24T02:48:32;8.90;99.90
5834;DHT22;2943;48.012;10.968;2023-04-24T02:51:00;8.90;99.90
5834;DHT22;2943;48.012;10.968;2023-04-24T02:53:27;8.90;99.90
5834;DHT22;2943;48.012;10.968;2023-04-24T02:55:55;8.90;99.90
5834;DHT22;2943;48.012;10.968;2023-04-24T02:58:22;8.80;99.90
5834;DHT22;2943;48.012;10.968;2023-04-24T03:00:53;8.90;99.90
5834;DHT22;2943;48.012;10.968;2023-04-24T03:03:20;8.90;99.90
5834;DHT22;2943;48.012;10.968;2023-04-24T03:05:48;8.90;99.90
5834;DHT22;2943;48.012;10.968;2023-04-24T03:08:16;8.90;99.90
5834;DHT22;2943;48.012;10.968;2023-04-24T03:10:43;8.90;99.90
5834;DHT22;2943;48.012;10.968;2023-04-24T03:13:10;8.80;99.90
5834;DHT22;2943;48.012;10.968;2023-04-24T03:15:37;8.80;99.90
5834;DHT22;2943;48.012;10.968;2023-04-24T03:18:04;8.80;99.90
5834;DHT22;2943;48.012;10.968;2023-04-24T03:20:31;8.80;99.90
5834;DHT22;2943;48.012;10.968;2023-04-24T03:23:01;8.70;99.90
5834;DHT22;2943;48.012;10.968;2023-04-24T03:25:28;8.80;99.90
5834;DHT22;2943;48.012;10.968;2023-04-24T03:27:55;8.70;99.90
5834;DHT22;2943;48.012;10.968;2023-04-24T03:30:22;8.70;99.90
5834;DHT22;2943;48.012;10.968;2023-04-24T03:32:49;8.70;99.90
5834;DHT22;2943;48.012;10.968;2023-04-24T03:35:16;8.80;99.90
5834;DHT22;2943;48.012;10.968;2023-04-24T03:37:43;8.70;99.90
5834;DHT22;2943;48.012;10.968;2023-04-24T03:40:11;8.80;99.90
5834;DHT22;2943;48.012;10.968;2023-04-24T03:42:38;8.70;99.90
5834;DHT22;2943;48.012;10.968;2023-04-24T03:45:06;8.70;99.90
5834;DHT22;2943;48.012;10.968;2023-04-24T03:47:34;8.70;99.90
5834;DHT22;2943;48.012;10.968;2023-04-24T03:50:01;8.70;99.90
5834;DHT22;2943;48.012;10.968;2023-04-24T03:52:29;8.70;99.90
5834;DHT22;2943;48.012;10.968;2023-04-24T03:54:55;8.80;99.90
5834;DHT22;2943;48.012;10.968;2023-04-24T03:57:27;8.70;99.90
5834;DHT22;2943;48.012;10.968;2023-04-24T03:59:54;8.80;99.90
5834;DHT22;2943;48.012;10.968;2023-04-24T04:02:21;8.70;99.90
5834;DHT22;2943;48.012;10.968;2023-04-24T04:04:48;8.70;99.90
5834;DHT22;2943;48.012;10.968;2023-04-24T04:07:14;8.70;99.90
5834;DHT22;2943;48.012;10.968;2023-04-24T04:09:41;8.60;99.90
5834;DHT22;2943;48.012;10.968;2023-04-24T04:12:08;8.60;99.90
5834;DHT22;2943;48.012;10.968;2023-04-24T04:14:36;8.50;99.90
5834;DHT22;2943;48.012;10.968;2023-04-24T04:17:04;8.50;99.90
5834;DHT22;2943;48.012;10.968;2023-04-24T04:19:30;8.60;99.90
5834;DHT22;2943;48.012;10.968;2023-04-24T04:21:58;8.50;99.90
5834;DHT22;2943;48.012;10.968;2023-04-24T04:24:25;8.50;99.90
5834;DHT22;2943;48.012;10.968;2023-04-24T04:26:52;8.50;99.90
5834;DHT22;2943;48.012;10.968;2023-04-24T04:29:22;8.50;99.90
5834;DHT22;2943;48.012;10.968;2023-04-24T04:31:50;8.50;99.90
5834;DHT22;2943;48.012;10.968;2023-04-24T04:34:18;8.50;99.90
5834;DHT22;2943;48.012;10.968;2023-04-24T04:36:45;8.50;99.90
5834;DHT22;2943;48.012;10.968;2023-04-24T04:39:12;8.50;99.90
5834;DHT22;2943;48.012;10.968;2023-04-24T04:41:40;8.50;99.90
5834;DHT22;2943;48.012;10.968;2023-04-24T04:44:08;8.50;99.90
5834;DHT22;2943;48.012;10.968;2023-04-24T04:46:35;8.50;99.90
5834;DHT22;2943;48.012;10.968;2023-04-24T04:49:05;8.60;99.90
5834;DHT22;2943;48.012;10.968;2023-04-24T04:51:34;8.60;99.90
5834;DHT22;2943;48.012;10.968;2023-04-24T04:54:01;8.50;99.90
5834;DHT22;2943;48.012;10.968;2023-04-24T04:56:28;8.40;99.90
5834;DHT22;2943;48.012;10.968;2023-04-24T04:58:56;8.50;99.90
5834;DHT22;2943;48.012;10.968;2023-04-24T05:01:24;8.50;99.90
5834;DHT22;2943;48.012;10.968;2023-04-24T05:03:52;8.50;99.90
5834;DHT22;2943;48.012;10.968;2023-04-24T05:06:21;8.50;99.90
5834;DHT22;2943;48.012;10.968;2023-04-24T05:08:48;8.40;99.90
5834;DHT22;2943;48.012;10.968;2023-04-24T05:11:17;8.40;99.90
5834;DHT22;2943;48.012;10.968;2023-04-24T05:13:44;8.50;99.90
5834;DHT22;2943;48.012;10.968;2023-04-24T05:16:11;8.50;99.90
5834;DHT22;2943;48.012;10.968;2023-04-24T05:18:38;8.50;99.90
5834;DHT22;2943;48.012;10.968;2023-04-24T05:21:05;8.50;99.90
5834;DHT22;2943;48.012;10.968;2023-04-24T05:23:34;8.50;99.90
5834;DHT22;2943;48.012;10.968;2023-04-24T05:26:00;8.50;99.90
5834;DHT22;2943;48.012;10.968;2023-04-24T05:28:28;8.50;99.90
5834;DHT22;2943;48.012;10.968;2023-04-24T05:30:55;8.50;99.90
5834;DHT22;2943;48.012;10.968;2023-04-24T05:33:22;8.50;99.90
5834;DHT22;2943;48.012;10.968;2023-04-24T05:35:49;8.50;99.90
5834;DHT22;2943;48.012;10.968;2023-04-24T05:38:16;8.50;99.90
5834;DHT22;2943;48.012;10.968;2023-04-24T05:40:44;8.50;99.90
5834;DHT22;2943;48.012;10.968;2023-04-24T05:43:12;8.50;99.90
5834;DHT22;2943;48.012;10.968;2023-04-24T05:45:39;8.50;99.90
5834;DHT22;2943;48.012;10.968;2023-04-24T05:48:06;8.50;99.90
5834;DHT22;2943;48.012;10.968;2023-04-24T05:50:33;8.50;99.90
5834;DHT22;2943;48.012;10.968;2023-04-24T05:53:00;8.50;99.90
5834;DHT22;2943;48.012;10.968;2023-04-24T05:55:27;8.50;99.90
5834;DHT22;2943;48.012;10.968;2023-04-24T05:57:55;8.50;99.90
5834;DHT22;2943;48.012;10.968;2023-04-24T06:00:23;8.50;99.90
5834;DHT22;2943;48.012;10.968;2023-04-24T06:02:50;8.50;99.90
5834;DHT22;2943;48.012;10.968;2023-04-24T06:05:18;8.60;99.90
5834;DHT22;2943;48.012;10.968;2023-04-24T06:07:45;8.50;99.90
5834;DHT22;2943;48.012;10.968;2023-04-24T06:10:12;8.60;99.90
5834;DHT22;2943;48.012;10.968;2023-04-24T06:12:38;8.60;99.90
5834;DHT22;2943;48.012;10.968;2023-04-24T06:15:08;8.60;99.90
5834;DHT22;2943;48.012;10.968;2023-04-24T06:17:35;8.70;99.90
5834;DHT22;2943;48.012;10.968;2023-04-24T06:20:03;8.70;99.90
5834;DHT22;2943;48.012;10.968;2023-04-24T06:22:31;8.70;99.90
5834;DHT22;2943;48.012;10.968;2023-04-24T06:24:59;8.80;99.90
5834;DHT22;2943;48.012;10.968;2023-04-24T06:27:26;8.80;99.90
5834;DHT22;2943;48.012;10.968;2023-04-24T06:29:52;8.70;99.90
5834;DHT22;2943;48.012;10.968;2023-04-24T06:32:23;8.70;99.90
5834;DHT22;2943;48.012;10.968;2023-04-24T06:34:51;8.70;99.90
5834;DHT22;2943;48.012;10.968;2023-04-24T06:37:18;8.80;99.90
5834;DHT22;2943;48.012;10.968;2023-04-24T06:39:46;8.80;99.90
5834;DHT22;2943;48.012;10.968;2023-04-24T06:42:13;8.80;99.90
5834;DHT22;2943;48.012;10.968;2023-04-24T06:44:39;8.80;99.90
5834;DHT22;2943;48.012;10.968;2023-04-24T06:47:07;8.80;99.90
5834;DHT22;2943;48.012;10.968;2023-04-24T06:49:37;8.90;99.90
5834;DHT22;2943;48.012;10.968;2023-04-24T06:52:04;8.90;99.90
5834;DHT22;2943;48.012;10.968;2023-04-24T06:54:32;8.90;99.90
5834;DHT22;2943;48.012;10.968;2023-04-24T06:56:59;8.90;99.90
5834;DHT22;2943;48.012;10.968;2023-04-24T06:59:28;8.90;99.90
5834;DHT22;2943;48.012;10.968;2023-04-24T07:01:55;9.00;99.90
5834;DHT22;2943;48.012;10.968;2023-04-24T07:04:22;9.00;99.90
5834;DHT22;2943;48.012;10.968;2023-04-24T07:06:52;9.10;99.90
5834;DHT22;2943;48.012;10.968;2023-04-24T07:09:21;9.10;99.90
5834;DHT22;2943;48.012;10.968;2023-04-24T07:11:49;9.20;99.90
5834;DHT22;2943;48.012;10.968;2023-04-24T07:14:17;9.30;99.90
5834;DHT22;2943;48.012;10.968;2023-04-24T07:16:44;9.30;99.90
5834;DHT22;2943;48.012;10.968;2023-04-24T07:19:12;9.40;99.90
5834;DHT22;2943;48.012;10.968;2023-04-24T07:21:39;9.50;99.90
5834;DHT22;2943;48.012;10.968;2023-04-24T07:24:07;9.50;99.90
5834;DHT22;2943;48.012;10.968;2023-04-24T07:26:37;9.50;99.90
5834;DHT22;2943;48.012;10.968;2023-04-24T07:29:04;9.50;99.90
5834;DHT22;2943;48.012;10.968;2023-04-24T07:31:31;9.60;99.90
5834;DHT22;2943;48.012;10.968;2023-04-24T07:33:58;9.60;99.90
5834;DHT22;2943;48.012;10.968;2023-04-24T07:36:26;9.60;99.90
5834;DHT22;2943;48.012;10.968;2023-04-24T07:38:54;9.50;99.90
5834;DHT22;2943;48.012;10.968;2023-04-24T07:41:22;9.50;99.90
5834;DHT22;2943;48.012;10.968;2023-04-24T07:43:49;9.50;99.90
5834;DHT22;2943;48.012;10.968;2023-04-24T07:46:17;9.50;99.90
5834;DHT22;2943;48.012;10.968;2023-04-24T07:48:44;9.40;99.90
5834;DHT22;2943;48.012;10.968;2023-04-24T07:51:11;9.40;99.90
5834;DHT22;2943;48.012;10.968;2023-04-24T07:53:39;9.50;99.90
5834;DHT22;2943;48.012;10.968;2023-04-24T07:56:06;9.50;99.90
5834;DHT22;2943;48.012;10.968;2023-04-24T07:58:34;9.50;99.90
5834;DHT22;2943;48.012;10.968;2023-04-24T08:01:01;9.50;99.90
5834;DHT22;2943;48.012;10.968;2023-04-24T08:03:28;9.20;99.90
5834;DHT22;2943;48.012;10.968;2023-04-24T08:05:55;8.90;99.90
5834;DHT22;2943;48.012;10.968;2023-04-24T08:08:23;8.50;99.90
5834;DHT22;2943;48.012;10.968;2023-04-24T08:10:50;8.20;99.90
5834;DHT22;2943;48.012;10.968;2023-04-24T08:13:16;8.00;99.90
5834;DHT22;2943;48.012;10.968;2023-04-24T08:15:45;7.90;99.90
5834;DHT22;2943;48.012;10.968;2023-04-24T08:18:12;7.70;99.90
5834;DHT22;2943;48.012;10.968;2023-04-24T08:20:41;7.70;99.90
5834;DHT22;2943;48.012;10.968;2023-04-24T08:23:08;7.70;99.90
5834;DHT22;2943;48.012;10.968;2023-04-24T08:25:35;7.80;99.90
5834;DHT22;2943;48.012;10.968;2023-04-24T08:28:02;7.80;99.90
5834;DHT22;2943;48.012;10.968;2023-04-24T08:30:30;7.90;99.90
5834;DHT22;2943;48.012;10.968;2023-04-24T08:32:58;7.90;99.90
5834;DHT22;2943;48.012;10.968;2023-04-24T08:35:25;8.00;99.90
5834;DHT22;2943;48.012;10.968;2023-04-24T08:37:52;8.00;99.90
5834;DHT22;2943;48.012;10.968;2023-04-24T08:40:26;8.10;99.90
5834;DHT22;2943;48.012;10.968;2023-04-24T08:42:54;8.30;99.90
5834;DHT22;2943;48.012;10.968;2023-04-24T08:45:23;8.40;99.90
5834;DHT22;2943;48.012;10.968;2023-04-24T08:47:52;8.60;99.90
5834;DHT22;2943;48.012;10.968;2023-04-24T08:50:21;8.80;99.90
5834;DHT22;2943;48.012;10.968;2023-04-24T08:52:50;8.90;99.90
5834;DHT22;2943;48.012;10.968;2023-04-24T08:55:19;8.90;99.90
5834;DHT22;2943;48.012;10.968;2023-04-24T08:57:50;9.00;99.90
5834;DHT22;2943;48.012;10.968;2023-04-24T09:00:19;9.10;99.90
5834;DHT22;2943;48.012;10.968;2023-04-24T09:02:47;9.20;99.90
5834;DHT22;2943;48.012;10.968;2023-04-24T09:05:16;9.30;99.90
5834;DHT22;2943;48.012;10.968;2023-04-24T09:07:50;9.40;99.90
5834;DHT22;2943;48.012;10.968;2023-04-24T09:10:19;9.60;99.90
5834;DHT22;2943;48.012;10.968;2023-04-24T09:12:47;9.70;99.90
5834;DHT22;2943;48.012;10.968;2023-04-24T09:15:14;9.80;99.90
5834;DHT22;2943;48.012;10.968;2023-04-24T09:17:41;10.00;99.90
5834;DHT22;2943;48.012;10.968;2023-04-24T09:20:09;10.10;99.90
5834;DHT22;2943;48.012;10.968;2023-04-24T09:22:36;10.20;99.90
5834;DHT22;2943;48.012;10.968;2023-04-24T09:25:06;10.30;99.90
5834;DHT22;2943;48.012;10.968;2023-04-24T09:27:34;10.50;99.90
5834;DHT22;2943;48.012;10.968;2023-04-24T09:30:02;10.60;99.90
5834;DHT22;2943;48.012;10.968;2023-04-24T09:32:29;10.80;99.90
5834;DHT22;2943;48.012;10.968;2023-04-24T09:35:08;10.90;99.90
5834;DHT22;2943;48.012;10.968;2023-04-24T09:37:36;11.00;99.90
5834;DHT22;2943;48.012;10.968;2023-04-24T09:40:12;11.10;99.90
5834;DHT22;2943;48.012;10.968;2023-04-24T09:42:40;11.20;99.90
5834;DHT22;2943;48.012;10.968;2023-04-24T09:45:12;11.30;99.90
5834;DHT22;2943;48.012;10.968;2023-04-24T09:47:39;11.40;99.90
5834;DHT22;2943;48.012;10.968;2023-04-24T09:50:10;11.50;99.90
5834;DHT22;2943;48.012;10.968;2023-04-24T09:52:40;11.60;99.90
5834;DHT22;2943;48.012;10.968;2023-04-24T09:55:16;11.80;99.90
5834;DHT22;2943;48.012;10.968;2023-04-24T09:57:50;11.80;99.90
5834;DHT22;2943;48.012;10.968;2023-04-24T10:00:21;11.80;99.90
5834;DHT22;2943;48.012;10.968;2023-04-24T10:02:54;11.70;99.90
5834;DHT22;2943;48.012;10.968;2023-04-24T10:05:23;11.70;99.90
5834;DHT22;2943;48.012;10.968;2023-04-24T10:07:51;11.70;99.90
5834;DHT22;2943;48.012;10.968;2023-04-24T10:10:20;11.20;99.90
5834;DHT22;2943;48.012;10.968;2023-04-24T10:12:47;10.30;99.90
5834;DHT22;2943;48.012;10.968;2023-04-24T10:15:15;9.70;99.90
5834;DHT22;2943;48.012;10.968;2023-04-24T10:17:48;9.10;99.90
5834;DHT22;2943;48.012;10.968;2023-04-24T10:20:19;8.70;99.90
5834;DHT22;2943;48.012;10.968;2023-04-24T10:22:48;8.50;99.90
5834;DHT22;2943;48.012;10.968;2023-04-24T10:25:20;8.40;99.90
5834;DHT22;2943;48.012;10.968;2023-04-24T10:27:48;8.40;99.90
5834;DHT22;2943;48.012;10.968;2023-04-24T10:30:17;8.60;99.90
5834;DHT22;2943;48.012;10.968;2023-04-24T10:32:44;8.80;99.90
5834;DHT22;2943;48.012;10.968;2023-04-24T10:35:12;9.10;99.90
5834;DHT22;2943;48.012;10.968;2023-04-24T10:37:43;9.40;99.90
5834;DHT22;2943;48.012;10.968;2023-04-24T10:40:12;9.70;99.90
5834;DHT22;2943;48.012;10.968;2023-04-24T10:42:47;9.80;99.90
5834;DHT22;2943;48.012;10.968;2023-04-24T10:45:17;9.90;99.90
5834;DHT22;2943;48.012;10.968;2023-04-24T10:47:56;10.00;99.90
5834;DHT22;2943;48.012;10.968;2023-04-24T10:50:27;10.10;99.90
5834;DHT22;2943;48.012;10.968;2023-04-24T10:53:07;10.10;99.90
5834;DHT22;2943;48.012;10.968;2023-04-24T10:55:42;10.20;99.90
5834;DHT22;2943;48.012;10.968;2023-04-24T10:58:11;10.40;99.90
5834;DHT22;2943;48.012;10.968;2023-04-24T11:00:39;10.50;99.90
5834;DHT22;2943;48.012;10.968;2023-04-24T11:03:22;10.80;99.90
5834;DHT22;2943;48.012;10.968;2023-04-24T11:05:52;10.90;99.90
5834;DHT22;2943;48.012;10.968;2023-04-24T11:08:25;11.20;99.90
5834;DHT22;2943;48.012;10.968;2023-04-24T11:10:58;11.30;99.90
5834;DHT22;2943;48.012;10.968;2023-04-24T11:13:27;11.50;99.90
5834;DHT22;2943;48.012;10.968;2023-04-24T11:16:19;11.60;99.90
5834;DHT22;2943;48.012;10.968;2023-04-24T11:18:50;11.60;99.90
5834;DHT22;2943;48.012;10.968;2023-04-24T11:21:20;11.60;99.90
5834;DHT22;2943;48.012;10.968;2023-04-24T11:23:47;11.60;99.90
5834;DHT22;2943;48.012;10.968;2023-04-24T11:26:18;11.50;99.90
5834;DHT22;2943;48.012;10.968;2023-04-24T11:28:51;11.30;99.90
5834;DHT22;2943;48.012;10.968;2023-04-24T11:31:40;11.10;99.90
5834;DHT22;2943;48.012;10.968;2023-04-24T11:34:08;10.80;99.90
5834;DHT22;2943;48.012;10.968;2023-04-24T11:36:36;10.60;99.90
5834;DHT22;2943;48.012;10.968;2023-04-24T11:39:03;10.50;99.90
5834;DHT22;2943;48.012;10.968;2023-04-24T11:41:30;10.50;99.90
5834;DHT22;2943;48.012;10.968;2023-04-24T11:43:59;10.40;99.90
5834;DHT22;2943;48.012;10.968;2023-04-24T11:46:30;10.40;99.90
5834;DHT22;2943;48.012;10.968;2023-04-24T11:48:58;10.40;99.90
5834;DHT22;2943;48.012;10.968;2023-04-24T11:51:26;10.30;99.90
5834;DHT22;2943;48.012;10.968;2023-04-24T11:53:54;10.40;99.90
5834;DHT22;2943;48.012;10.968;2023-04-24T11:56:21;10.40;99.90
5834;DHT22;2943;48.012;10.968;2023-04-24T11:58:51;10.50;99.90
5834;DHT22;2943;48.012;10.968;2023-04-24T12:01:20;10.50;99.90
5834;DHT22;2943;48.012;10.968;2023-04-24T12:03:48;10.50;99.90
5834;DHT22;2943;48.012;10.968;2023-04-24T12:06:16;10.50;99.90
5834;DHT22;2943;48.012;10.968;2023-04-24T12:08:46;10.60;99.90
5834;DHT22;2943;48.012;10.968;2023-04-24T12:11:16;10.70;99.90
5834;DHT22;2943;48.012;10.968;2023-04-24T12:13:44;10.80;99.90
5834;DHT22;2943;48.012;10.968;2023-04-24T12:16:12;10.90;99.90
5834;DHT22;2943;48.012;10.968;2023-04-24T12:18:45;11.00;99.90
5834;DHT22;2943;48.012;10.968;2023-04-24T12:21:18;11.00;99.90
5834;DHT22;2943;48.012;10.968;2023-04-24T12:23:46;11.10;99.90
5834;DHT22;2943;48.012;10.968;2023-04-24T12:26:16;11.20;99.90
5834;DHT22;2943;48.012;10.968;2023-04-24T12:28:47;11.30;99.90
5834;DHT22;2943;48.012;10.968;2023-04-24T12:31:14;11.50;99.90
5834;DHT22;2943;48.012;10.968;2023-04-24T12:33:41;11.60;99.90
5834;DHT22;2943;48.012;10.968;2023-04-24T12:36:11;11.70;99.90
5834;DHT22;2943;48.012;10.968;2023-04-24T12:38:39;11.90;99.90
5834;DHT22;2943;48.012;10.968;2023-04-24T12:41:12;12.10;99.90
5834;DHT22;2943;48.012;10.968;2023-04-24T12:43:50;12.20;99.90
5834;DHT22;2943;48.012;10.968;2023-04-24T12:46:17;12.30;99.90
5834;DHT22;2943;48.012;10.968;2023-04-24T12:48:44;12.20;99.90
5834;DHT22;2943;48.012;10.968;2023-04-24T12:51:13;12.10;99.90
5834;DHT22;2943;48.012;10.968;2023-04-24T12:53:41;11.90;99.90
5834;DHT22;2943;48.012;10.968;2023-04-24T12:56:10;11.60;99.90
5834;DHT22;2943;48.012;10.968;2023-04-24T12:58:37;11.20;99.90
5834;DHT22;2943;48.012;10.968;2023-04-24T13:01:04;10.90;99.90
5834;DHT22;2943;48.012;10.968;2023-04-24T13:03:31;10.70;99.90
5834;DHT22;2943;48.012;10.968;2023-04-24T13:05:58;10.60;99.90
5834;DHT22;2943;48.012;10.968;2023-04-24T13:08:26;10.50;99.90
5834;DHT22;2943;48.012;10.968;2023-04-24T13:10:53;10.30;99.90
5834;DHT22;2943;48.012;10.968;2023-04-24T13:13:20;10.30;99.90
5834;DHT22;2943;48.012;10.968;2023-04-24T13:15:47;10.40;99.90
5834;DHT22;2943;48.012;10.968;2023-04-24T13:18:14;10.50;99.90
5834;DHT22;2943;48.012;10.968;2023-04-24T13:20:41;10.60;99.90
5834;DHT22;2943;48.012;10.968;2023-04-24T13:23:08;10.70;99.90
5834;DHT22;2943;48.012;10.968;2023-04-24T13:25:40;10.60;99.90
5834;DHT22;2943;48.012;10.968;2023-04-24T13:28:16;10.60;99.90
5834;DHT22;2943;48.012;10.968;2023-04-24T13:30:43;10.60;99.90
5834;DHT22;2943;48.012;10.968;2023-04-24T13:33:11;10.70;99.90
5834;DHT22;2943;48.012;10.968;2023-04-24T13:35:38;10.90;99.90
5834;DHT22;2943;48.012;10.968;2023-04-24T13:38:05;10.90;99.90
5834;DHT22;2943;48.012;10.968;2023-04-24T13:40:32;11.10;99.90
5834;DHT22;2943;48.012;10.968;2023-04-24T13:43:01;11.10;99.90
5834;DHT22;2943;48.012;10.968;2023-04-24T13:45:28;11.20;99.90
5834;DHT22;2943;48.012;10.968;2023-04-24T13:47:55;11.20;99.90
5834;DHT22;2943;48.012;10.968;2023-04-24T13:50:22;11.20;99.90
5834;DHT22;2943;48.012;10.968;2023-04-24T13:52:49;11.20;99.90
5834;DHT22;2943;48.012;10.968;2023-04-24T13:55:16;11.20;99.90
5834;DHT22;2943;48.012;10.968;2023-04-24T13:57:43;11.10;99.90
5834;DHT22;2943;48.012;10.968;2023-04-24T14:00:12;11.10;99.90
5834;DHT22;2943;48.012;10.968;2023-04-24T14:02:39;11.00;99.90
5834;DHT22;2943;48.012;10.968;2023-04-24T14:05:07;11.00;99.90
5834;DHT22;2943;48.012;10.968;2023-04-24T14:07:36;11.20;99.90
5834;DHT22;2943;48.012;10.968;2023-04-24T14:10:03;11.30;99.90
5834;DHT22;2943;48.012;10.968;2023-04-24T14:12:30;11.30;99.90
5834;DHT22;2943;48.012;10.968;2023-04-24T14:14:57;11.40;99.90
5834;DHT22;2943;48.012;10.968;2023-04-24T14:17:26;11.30;99.90
5834;DHT22;2943;48.012;10.968;2023-04-24T14:19:52;11.30;99.90
5834;DHT22;2943;48.012;10.968;2023-04-24T14:22:21;11.10;99.90
5834;DHT22;2943;48.012;10.968;2023-04-24T14:24:48;11.00;99.90
5834;DHT22;2943;48.012;10.968;2023-04-24T14:27:15;11.10;99.90
5834;DHT22;2943;48.012;10.968;2023-04-24T14:29:42;11.50;99.90
5834;DHT22;2943;48.012;10.968;2023-04-24T14:32:10;11.70;99.90
5834;DHT22;2943;48.012;10.968;2023-04-24T14:34:41;11.80;99.90
5834;DHT22;2943;48.012;10.968;2023-04-24T14:37:09;11.80;99.90
5834;DHT22;2943;48.012;10.968;2023-04-24T14:39:36;11.90;99.90
5834;DHT22;2943;48.012;10.968;2023-04-24T14:42:02;12.00;99.90
5834;DHT22;2943;48.012;10.968;2023-04-24T14:44:32;11.90;99.90
5834;DHT22;2943;48.012;10.968;2023-04-24T14:46:59;11.90;99.90
5834;DHT22;2943;48.012;10.968;2023-04-24T14:49:26;11.80;99.90
5834;DHT22;2943;48.012;10.968;2023-04-24T14:51:54;11.70;99.90
5834;DHT22;2943;48.012;10.968;2023-04-24T14:54:21;11.60;99.90
5834;DHT22;2943;48.012;10.968;2023-04-24T14:56:48;11.60;99.90
5834;DHT22;2943;48.012;10.968;2023-04-24T14:59:16;11.70;99.90
5834;DHT22;2943;48.012;10.968;2023-04-24T15:01:42;11.90;99.90
5834;DHT22;2943;48.012;10.968;2023-04-24T15:04:09;12.10;99.90
5834;DHT22;2943;48.012;10.968;2023-04-24T15:06:37;12.40;99.90
5834;DHT22;2943;48.012;10.968;2023-04-24T15:09:05;12.60;99.90
5834;DHT22;2943;48.012;10.968;2023-04-24T15:11:32;12.50;99.90
5834;DHT22;2943;48.012;10.968;2023-04-24T15:13:59;12.40;99.90
5834;DHT22;2943;48.012;10.968;2023-04-24T15:16:26;12.30;99.90
5834;DHT22;2943;48.012;10.968;2023-04-24T15:18:53;12.30;99.90
5834;DHT22;2943;48.012;10.968;2023-04-24T15:21:20;12.20;99.90
5834;DHT22;2943;48.012;10.968;2023-04-24T15:23:47;12.10;99.90
5834;DHT22;2943;48.012;10.968;2023-04-24T15:26:15;11.90;99.90
5834;DHT22;2943;48.012;10.968;2023-04-24T15:28:42;11.70;99.90
5834;DHT22;2943;48.012;10.968;2023-04-24T15:31:09;11.60;99.90
5834;DHT22;2943;48.012;10.968;2023-04-24T15:33:35;11.50;99.90
5834;DHT22;2943;48.012;10.968;2023-04-24T15:36:03;11.50;99.90
5834;DHT22;2943;48.012;10.968;2023-04-24T15:38:30;11.50;99.90
5834;DHT22;2943;48.012;10.968;2023-04-24T15:40:59;11.50;99.90
5834;DHT22;2943;48.012;10.968;2023-04-24T15:43:27;11.40;99.90
5834;DHT22;2943;48.012;10.968;2023-04-24T15:45:56;11.50;99.90
5834;DHT22;2943;48.012;10.968;2023-04-24T15:48:24;11.50;99.90
5834;DHT22;2943;48.012;10.968;2023-04-24T15:50:50;11.60;99.90
5834;DHT22;2943;48.012;10.968;2023-04-24T15:53:17;11.60;99.90
5834;DHT22;2943;48.012;10.968;2023-04-24T15:55:46;11.60;99.90
5834;DHT22;2943;48.012;10.968;2023-04-24T15:58:13;11.60;99.90
5834;DHT22;2943;48.012;10.968;2023-04-24T16:00:42;11.40;99.90